Saturday, May 26, 2018, 8:14 AM EDT

KLNS, Lancaster Airport

Location: Lititz, PA, United States Lat: 40.117
Local Time: 8:14 AM EDT (12:14 GMT) Lon: -76.3
Time Zone: US/Eastern Elev: 403 ft

Show me the last for .
Show Decoded

2018-05-26 07:53 METAR KLNS 261153Z 29003KT 7SM FEW100 22/20 A2987 RMK AO2 SLP111 T02220200 10222
                 20183 53008 =
2018-05-26 06:53 METAR KLNS 261053Z 00000KT 5SM BR CLR 21/19 A2986 RMK AO2 SLP107 T02110194 =
2018-05-26 05:53 METAR KLNS 260953Z 00000KT 3SM BR CLR 19/18 A2985 RMK AO2 SLP105 T01890183 =
2018-05-26 04:53 METAR KLNS 260853Z AUTO 00000KT 4SM BR CLR 19/18 A2985 RMK AO2 SLP103 T01890178
                 56007 =
2018-05-26 03:53 METAR KLNS 260753Z AUTO 00000KT 6SM BR CLR 19/18 A2985 RMK AO2 SLP104 T01940183
                 =
2018-05-26 02:53 METAR KLNS 260653Z AUTO 00000KT 7SM CLR 20/18 A2986 RMK AO2 SLP107 T02000183 =
2018-05-26 01:53 METAR KLNS 260553Z AUTO 15003KT 9SM CLR 22/19 A2987 RMK AO2 SLP110 T02170189
                 10267 20211 58006 =
2018-05-26 00:53 METAR KLNS 260453Z AUTO 20003KT 10SM BKN065 23/19 A2988 RMK AO2 SLP114 T02330189
                 403060117 =
2018-05-25 23:53 METAR KLNS 260353Z AUTO 20004KT 10SM CLR 24/19 A2988 RMK AO2 SLP114 T02390189 =
2018-05-25 22:53 METAR KLNS 260253Z 20006KT 10SM FEW065 24/19 A2989 RMK AO2 SLP117 T02440189
                 51006 =
2018-05-25 21:53 METAR KLNS 260153Z 20006KT 10SM CLR 24/19 A2988 RMK AO2 SLP116 T02440189 =
2018-05-25 20:53 METAR KLNS 260053Z 19008KT 10SM SCT075 25/18 A2987 RMK AO2 SLP113 T02500183 =
2018-05-25 19:53 METAR KLNS 252353Z 18010KT 10SM CLR 27/18 A2987 RMK AO2 SLP112 T02670178 10306
                 20267 55008 =
2018-05-25 18:53 METAR KLNS 252253Z 23008KT 10SM CLR 29/16 A2987 RMK AO2 SLP111 T02890156 =
2018-05-25 17:53 METAR KLNS 252153Z 25013KT 10SM CLR 29/16 A2987 RMK AO2 SLP114 T02940156 =
2018-05-25 16:53 METAR KLNS 252053Z 24011KT 10SM CLR 30/16 A2989 RMK AO2 SLP120 T03000161 58020 =
2018-05-25 15:53 METAR KLNS 251953Z 26011KT 10SM SCT070 29/16 A2992 RMK AO2 SLP128 T02940161 =
2018-05-25 14:53 METAR KLNS 251853Z 23008G16KT 10SM FEW050 30/17 A2993 RMK AO2 SLP132 T03000167 =
2018-05-25 13:53 METAR KLNS 251753Z 23009G14KT 10SM CLR 29/17 A2995 RMK AO2 SLP139 T02940172
                 10294 20178 58027 =
2018-05-25 12:53 METAR KLNS 251653Z 25008KT 10SM CLR 28/17 A2998 RMK AO2 SLP148 T02830172 =
2018-05-25 11:53 METAR KLNS 251553Z 26008KT 10SM CLR 28/17 A3001 RMK AO2 SLP160 T02780167 =
2018-05-25 10:53 METAR KLNS 251453Z 25009KT 10SM CLR 26/15 A3003 RMK AO2 SLP167 T02610150 58015 =
2018-05-25 09:53 METAR KLNS 251353Z 23004KT 9SM CLR 24/14 A3005 RMK AO2 SLP172 T02440139 =
2018-05-25 08:53 METAR KLNS 251253Z 00000KT 8SM CLR 22/13 A3007 RMK AO2 SLP180 T02170133 =

Support USWX by starting your Amazon purchase here.